sensor_id;sensor_type;location;lat;lon;timestamp;pressure;altitude;pressure_sealevel;temperature;humidity
75543;BME280;64129;53.508;10.476;2023-04-01T00:01:48;99081.13;;;10.30;88.39
75543;BME280;64129;53.508;10.476;2023-04-01T00:04:14;99087.28;;;10.30;88.87
75543;BME280;64129;53.508;10.476;2023-04-01T00:06:42;99081.63;;;10.19;89.63
75543;BME280;64129;53.508;10.476;2023-04-01T00:09:08;99090.09;;;10.27;89.47
75543;BME280;64129;53.508;10.476;2023-04-01T00:11:35;99086.66;;;10.25;88.77
75543;BME280;64129;53.508;10.476;2023-04-01T00:14:01;99082.84;;;10.12;89.55
75543;BME280;64129;53.508;10.476;2023-04-01T00:16:28;99086.03;;;10.20;89.10
75543;BME280;64129;53.508;10.476;2023-04-01T00:18:54;99089.31;;;10.25;88.75
75543;BME280;64129;53.508;10.476;2023-04-01T00:21:21;99089.47;;;10.22;88.69
75543;BME280;64129;53.508;10.476;2023-04-01T00:23:49;99087.59;;;10.24;88.49
75543;BME280;64129;53.508;10.476;2023-04-01T00:26:16;99094.75;;;10.22;89.34
75543;BME280;64129;53.508;10.476;2023-04-01T00:28:45;99085.72;;;10.26;88.89
75543;BME280;64129;53.508;10.476;2023-04-01T00:31:12;99088.53;;;10.23;89.27
75543;BME280;64129;53.508;10.476;2023-04-01T00:33:40;99093.06;;;10.21;88.83
75543;BME280;64129;53.508;10.476;2023-04-01T00:36:09;99089.56;;;10.19;88.83
75543;BME280;64129;53.508;10.476;2023-04-01T00:38:37;99094.03;;;10.19;89.17
75543;BME280;64129;53.508;10.476;2023-04-01T00:41:04;99081.78;;;10.16;89.48
75543;BME280;64129;53.508;10.476;2023-04-01T00:43:31;99089.72;;;10.16;88.79
75543;BME280;64129;53.508;10.476;2023-04-01T00:45:58;99089.72;;;10.16;88.79
75543;BME280;64129;53.508;10.476;2023-04-01T00:48:32;99086.16;;;10.17;88.47
75543;BME280;64129;53.508;10.476;2023-04-01T00:51:17;99087.31;;;10.12;89.11
75543;BME280;64129;53.508;10.476;2023-04-01T00:53:48;99090.03;;;10.10;89.39
75543;BME280;64129;53.508;10.476;2023-04-01T00:56:19;99086.72;;;10.05;89.66
75543;BME280;64129;53.508;10.476;2023-04-01T00:58:51;99086.44;;;10.11;89.16
75543;BME280;64129;53.508;10.476;2023-04-01T01:01:22;99083.88;;;10.10;88.92
75543;BME280;64129;53.508;10.476;2023-04-01T01:03:50;99093.47;;;10.12;89.00
75543;BME280;64129;53.508;10.476;2023-04-01T01:11:49;99091.75;;;10.11;88.92
75543;BME280;64129;53.508;10.476;2023-04-01T01:14:28;99093.78;;;10.06;89.26
75543;BME280;64129;53.508;10.476;2023-04-01T01:17:25;99096.47;;;10.05;89.86
75543;BME280;64129;53.508;10.476;2023-04-01T01:34:10;99092.16;;;10.02;90.00
75543;BME280;64129;53.508;10.476;2023-04-01T01:36:43;99092.31;;;9.99;89.35
75543;BME280;64129;53.508;10.476;2023-04-01T01:39:13;99088.09;;;9.95;89.46
75543;BME280;64129;53.508;10.476;2023-04-01T01:41:42;99087.47;;;9.90;89.96
75543;BME280;64129;53.508;10.476;2023-04-01T01:44:12;99095.50;;;10.07;89.68
75543;BME280;64129;53.508;10.476;2023-04-01T01:46:40;99094.09;;;9.98;90.13
75543;BME280;64129;53.508;10.476;2023-04-01T01:49:10;99094.91;;;10.00;89.78
75543;BME280;64129;53.508;10.476;2023-04-01T01:51:38;99089.75;;;9.97;89.71
75543;BME280;64129;53.508;10.476;2023-04-01T01:54:12;99090.75;;;9.95;89.98
75543;BME280;64129;53.508;10.476;2023-04-01T01:56:41;99099.63;;;9.94;90.08
75543;BME280;64129;53.508;10.476;2023-04-01T01:59:10;99096.19;;;9.92;90.04
75543;BME280;64129;53.508;10.476;2023-04-01T02:01:42;99099.19;;;10.03;89.85
75543;BME280;64129;53.508;10.476;2023-04-01T02:04:13;99094.19;;;9.97;89.90
75543;BME280;64129;53.508;10.476;2023-04-01T02:07:02;99098.13;;;9.88;90.06
75543;BME280;64129;53.508;10.476;2023-04-01T02:09:30;99102.13;;;9.97;89.62
75543;BME280;64129;53.508;10.476;2023-04-01T02:12:01;99102.06;;;9.98;89.28
75543;BME280;64129;53.508;10.476;2023-04-01T02:14:53;99105.72;;;9.96;89.68
75543;BME280;64129;53.508;10.476;2023-04-01T02:17:24;99099.38;;;9.81;90.85
75543;BME280;64129;53.508;10.476;2023-04-01T02:20:02;99106.66;;;9.95;89.56
75543;BME280;64129;53.508;10.476;2023-04-01T02:22:36;99100.22;;;9.82;90.87
75543;BME280;64129;53.508;10.476;2023-04-01T02:25:11;99103.50;;;9.87;89.90
75543;BME280;64129;53.508;10.476;2023-04-01T02:27:40;99106.66;;;9.95;90.20
75543;BME280;64129;53.508;10.476;2023-04-01T02:30:10;99102.28;;;9.94;90.40
75543;BME280;64129;53.508;10.476;2023-04-01T02:32:38;99105.75;;;9.77;90.56
75543;BME280;64129;53.508;10.476;2023-04-01T02:35:07;99106.72;;;9.93;90.41
75543;BME280;64129;53.508;10.476;2023-04-01T02:37:35;99110.13;;;9.78;90.27
75543;BME280;64129;53.508;10.476;2023-04-01T02:40:04;99113.91;;;9.73;90.78
75543;BME280;64129;53.508;10.476;2023-04-01T02:42:34;99109.13;;;9.81;90.67
75543;BME280;64129;53.508;10.476;2023-04-01T02:45:00;99114.47;;;9.79;91.02
75543;BME280;64129;53.508;10.476;2023-04-01T02:47:27;99113.38;;;9.64;90.90
75543;BME280;64129;53.508;10.476;2023-04-01T02:49:54;99108.31;;;9.79;90.98
75543;BME280;64129;53.508;10.476;2023-04-01T02:52:25;99114.84;;;9.72;90.94
75543;BME280;64129;53.508;10.476;2023-04-01T02:54:52;99117.13;;;9.79;90.70
75543;BME280;64129;53.508;10.476;2023-04-01T02:57:18;99126.97;;;9.77;90.71
75543;BME280;64129;53.508;10.476;2023-04-01T02:59:46;99122.38;;;9.81;90.68
75543;BME280;64129;53.508;10.476;2023-04-01T03:02:14;99128.59;;;9.80;90.51
75543;BME280;64129;53.508;10.476;2023-04-01T03:04:41;99125.22;;;9.95;90.24
75543;BME280;64129;53.508;10.476;2023-04-01T03:07:07;99130.31;;;9.81;90.18
75543;BME280;64129;53.508;10.476;2023-04-01T03:09:39;99131.91;;;9.85;90.33
75543;BME280;64129;53.508;10.476;2023-04-01T03:12:06;99132.47;;;9.73;91.07
75543;BME280;64129;53.508;10.476;2023-04-01T03:14:43;99132.19;;;9.79;90.89
75543;BME280;64129;53.508;10.476;2023-04-01T03:17:09;99133.91;;;9.80;90.36
75543;BME280;64129;53.508;10.476;2023-04-01T03:19:36;99127.63;;;9.62;91.37
75543;BME280;64129;53.508;10.476;2023-04-01T03:22:06;99127.59;;;9.82;90.63
75543;BME280;64129;53.508;10.476;2023-04-01T03:24:34;99134.75;;;9.80;90.70
75543;BME280;64129;53.508;10.476;2023-04-01T03:27:00;99140.94;;;9.81;89.98
75543;BME280;64129;53.508;10.476;2023-04-01T03:29:27;99144.50;;;9.80;90.66
75543;BME280;64129;53.508;10.476;2023-04-01T03:31:54;99134.06;;;9.77;90.88
75543;BME280;64129;53.508;10.476;2023-04-01T03:34:24;99136.28;;;9.86;90.61
75543;BME280;64129;53.508;10.476;2023-04-01T03:36:51;99137.50;;;9.79;90.72
75543;BME280;64129;53.508;10.476;2023-04-01T03:39:18;99144.66;;;9.77;90.90
75543;BME280;64129;53.508;10.476;2023-04-01T03:41:45;99142.72;;;9.80;90.44
75543;BME280;64129;53.508;10.476;2023-04-01T03:44:12;99141.72;;;9.83;90.90
75543;BME280;64129;53.508;10.476;2023-04-01T03:46:39;99149.53;;;9.86;90.56
75543;BME280;64129;53.508;10.476;2023-04-01T03:49:07;99146.22;;;9.81;90.95
75543;BME280;64129;53.508;10.476;2023-04-01T03:51:39;99149.50;;;9.67;91.43
75543;BME280;64129;53.508;10.476;2023-04-01T03:54:07;99147.69;;;9.67;91.65
75543;BME280;64129;53.508;10.476;2023-04-01T03:56:33;99155.78;;;9.64;91.53
75543;BME280;64129;53.508;10.476;2023-04-01T03:59:05;99153.72;;;9.71;91.36
75543;BME280;64129;53.508;10.476;2023-04-01T04:01:33;99151.97;;;9.72;90.82
75543;BME280;64129;53.508;10.476;2023-04-01T04:03:59;99155.66;;;9.67;91.65
75543;BME280;64129;53.508;10.476;2023-04-01T04:06:27;99157.97;;;9.75;91.49
75543;BME280;64129;53.508;10.476;2023-04-01T04:08:53;99155.41;;;9.74;91.39
75543;BME280;64129;53.508;10.476;2023-04-01T04:11:21;99152.50;;;9.59;91.65
75543;BME280;64129;53.508;10.476;2023-04-01T04:13:50;99152.34;;;9.62;91.75
75543;BME280;64129;53.508;10.476;2023-04-01T04:16:19;99159.56;;;9.79;90.85
75543;BME280;64129;53.508;10.476;2023-04-01T04:18:52;99164.03;;;9.58;92.18
75543;BME280;64129;53.508;10.476;2023-04-01T04:21:18;99162.69;;;9.68;91.50
75543;BME280;64129;53.508;10.476;2023-04-01T04:23:45;99168.75;;;9.70;91.11
75543;BME280;64129;53.508;10.476;2023-04-01T04:26:14;99161.34;;;9.79;91.07
75543;BME280;64129;53.508;10.476;2023-04-01T04:28:44;99171.16;;;9.77;90.87
75543;BME280;64129;53.508;10.476;2023-04-01T04:31:11;99168.84;;;9.69;91.32
75543;BME280;64129;53.508;10.476;2023-04-01T04:33:40;99178.50;;;9.51;91.94
75543;BME280;64129;53.508;10.476;2023-04-01T04:36:07;99176.34;;;9.59;91.98
75543;BME280;64129;53.508;10.476;2023-04-01T04:38:34;99178.06;;;9.60;91.69
75543;BME280;64129;53.508;10.476;2023-04-01T04:41:00;99187.88;;;9.58;92.17
75543;BME280;64129;53.508;10.476;2023-04-01T04:43:27;99187.94;;;9.57;91.93
75543;BME280;64129;53.508;10.476;2023-04-01T04:45:55;99198.22;;;9.64;92.02
75543;BME280;64129;53.508;10.476;2023-04-01T04:48:21;99202.97;;;9.77;91.40
75543;BME280;64129;53.508;10.476;2023-04-01T04:50:49;99195.31;;;9.50;92.25
75543;BME280;64129;53.508;10.476;2023-04-01T04:53:18;99199.63;;;9.53;92.72
75543;BME280;64129;53.508;10.476;2023-04-01T04:55:46;99200.22;;;9.59;92.17
75543;BME280;64129;53.508;10.476;2023-04-01T04:58:21;99205.13;;;9.48;93.03
75543;BME280;64129;53.508;10.476;2023-04-01T05:00:49;99203.81;;;9.38;93.15
75543;BME280;64129;53.508;10.476;2023-04-01T05:03:24;99216.66;;;9.47;92.80
75543;BME280;64129;53.508;10.476;2023-04-01T05:05:53;99215.13;;;9.42;92.35
75543;BME280;64129;53.508;10.476;2023-04-01T05:08:20;99221.94;;;9.06;91.17
75543;BME280;64129;53.508;10.476;2023-04-01T05:10:46;99221.22;;;9.03;91.03
75543;BME280;64129;53.508;10.476;2023-04-01T05:13:13;99232.00;;;8.77;90.61
75543;BME280;64129;53.508;10.476;2023-04-01T05:15:41;99230.94;;;8.59;91.02
75543;BME280;64129;53.508;10.476;2023-04-01T05:18:07;99235.88;;;8.68;90.96
75543;BME280;64129;53.508;10.476;2023-04-01T05:20:34;99235.50;;;8.33;92.23
75543;BME280;64129;53.508;10.476;2023-04-01T05:23:01;99246.06;;;8.33;91.82
75543;BME280;64129;53.508;10.476;2023-04-01T05:25:28;99247.53;;;8.40;91.67
75543;BME280;64129;53.508;10.476;2023-04-01T05:27:55;99257.22;;;8.41;91.85
75543;BME280;64129;53.508;10.476;2023-04-01T05:30:21;99261.06;;;8.31;91.17
75543;BME280;64129;53.508;10.476;2023-04-01T05:33:17;99259.59;;;8.24;90.64
75543;BME280;64129;53.508;10.476;2023-04-01T05:35:43;99257.06;;;8.21;91.29
75543;BME280;64129;53.508;10.476;2023-04-01T05:38:12;99266.81;;;7.96;91.52
75543;BME280;64129;53.508;10.476;2023-04-01T05:40:38;99268.34;;;8.03;90.33
75543;BME280;64129;53.508;10.476;2023-04-01T05:43:05;99270.88;;;8.06;91.26
75543;BME280;64129;53.508;10.476;2023-04-01T05:45:32;99268.03;;;7.87;91.30
75543;BME280;64129;53.508;10.476;2023-04-01T05:48:11;99281.84;;;7.70;91.90
75543;BME280;64129;53.508;10.476;2023-04-01T05:50:39;99290.25;;;7.81;91.26
75543;BME280;64129;53.508;10.476;2023-04-01T05:53:06;99281.41;;;7.82;90.98
75543;BME280;64129;53.508;10.476;2023-04-01T05:55:35;99285.94;;;7.54;91.50
75543;BME280;64129;53.508;10.476;2023-04-01T05:58:02;99285.53;;;7.66;90.96
75543;BME280;64129;53.508;10.476;2023-04-01T06:00:29;99292.94;;;7.55;91.31
75543;BME280;64129;53.508;10.476;2023-04-01T06:02:59;99300.41;;;7.69;90.50
75543;BME280;64129;53.508;10.476;2023-04-01T06:05:30;99299.09;;;7.56;90.24
75543;BME280;64129;53.508;10.476;2023-04-01T06:08:05;99308.94;;;7.50;91.20
75543;BME280;64129;53.508;10.476;2023-04-01T06:22:02;99325.00;;;7.18;90.95
75543;BME280;64129;53.508;10.476;2023-04-01T06:30:40;99341.13;;;7.37;90.94
75543;BME280;64129;53.508;10.476;2023-04-01T06:33:30;99355.59;;;6.97;90.25
75543;BME280;64129;53.508;10.476;2023-04-01T06:38:41;99352.88;;;7.00;90.67
75543;BME280;64129;53.508;10.476;2023-04-01T06:41:38;99358.09;;;7.28;90.47
75543;BME280;64129;53.508;10.476;2023-04-01T06:51:14;99367.44;;;7.12;90.59
75543;BME280;64129;53.508;10.476;2023-04-01T06:54:19;99373.78;;;7.06;90.56
75543;BME280;64129;53.508;10.476;2023-04-01T06:57:34;99378.19;;;6.78;90.31
75543;BME280;64129;53.508;10.476;2023-04-01T07:00:10;99380.81;;;6.78;90.62
75543;BME280;64129;53.508;10.476;2023-04-01T07:02:45;99385.38;;;6.73;90.29
75543;BME280;64129;53.508;10.476;2023-04-01T07:05:14;99385.00;;;6.85;90.37
75543;BME280;64129;53.508;10.476;2023-04-01T07:07:48;99394.38;;;6.95;89.40
75543;BME280;64129;53.508;10.476;2023-04-01T07:10:20;99394.19;;;6.72;90.25
75543;BME280;64129;53.508;10.476;2023-04-01T07:13:29;99409.56;;;6.87;89.75
75543;BME280;64129;53.508;10.476;2023-04-01T07:18:44;99417.13;;;6.70;90.14
75543;BME280;64129;53.508;10.476;2023-04-01T07:21:34;99418.13;;;6.66;90.29
75543;BME280;64129;53.508;10.476;2023-04-01T07:24:21;99422.31;;;6.73;90.27
75543;BME280;64129;53.508;10.476;2023-04-01T07:27:00;99432.50;;;6.85;90.09
75543;BME280;64129;53.508;10.476;2023-04-01T07:29:30;99434.31;;;6.83;91.07
75543;BME280;64129;53.508;10.476;2023-04-01T07:34:36;99438.41;;;6.93;90.34
75543;BME280;64129;53.508;10.476;2023-04-01T07:42:49;99459.88;;;6.81;90.25
75543;BME280;64129;53.508;10.476;2023-04-01T07:45:31;99459.84;;;6.82;90.06
75543;BME280;64129;53.508;10.476;2023-04-01T07:50:41;99464.66;;;6.68;90.52
75543;BME280;64129;53.508;10.476;2023-04-01T07:58:33;99481.03;;;6.48;90.22
75543;BME280;64129;53.508;10.476;2023-04-01T08:01:30;99489.63;;;6.86;89.60
75543;BME280;64129;53.508;10.476;2023-04-01T08:06:54;99497.72;;;6.49;89.25
75543;BME280;64129;53.508;10.476;2023-04-01T08:09:59;99495.06;;;6.81;89.08
75543;BME280;64129;53.508;10.476;2023-04-01T08:16:04;99506.00;;;6.99;89.09
75543;BME280;64129;53.508;10.476;2023-04-01T08:21:23;99509.03;;;6.85;88.85
75543;BME280;64129;53.508;10.476;2023-04-01T08:23:59;99523.25;;;6.79;88.39
75543;BME280;64129;53.508;10.476;2023-04-01T08:26:42;99518.69;;;6.53;89.05
75543;BME280;64129;53.508;10.476;2023-04-01T08:32:09;99525.69;;;6.87;89.34
75543;BME280;64129;53.508;10.476;2023-04-01T08:34:40;99538.41;;;6.73;88.86
75543;BME280;64129;53.508;10.476;2023-04-01T08:37:28;99541.03;;;6.73;89.36
75543;BME280;64129;53.508;10.476;2023-04-01T08:40:02;99537.66;;;6.68;88.83
75543;BME280;64129;53.508;10.476;2023-04-01T08:43:04;99540.84;;;6.79;89.27
75543;BME280;64129;53.508;10.476;2023-04-01T08:45:53;99544.44;;;6.76;89.11
75543;BME280;64129;53.508;10.476;2023-04-01T08:51:27;99557.94;;;6.66;88.90
75543;BME280;64129;53.508;10.476;2023-04-01T08:57:01;99567.69;;;6.30;89.68
75543;BME280;64129;53.508;10.476;2023-04-01T08:59:45;99566.59;;;6.37;89.19
75543;BME280;64129;53.508;10.476;2023-04-01T09:11:42;99572.13;;;6.94;89.06
75543;BME280;64129;53.508;10.476;2023-04-01T09:14:23;99575.78;;;6.88;88.76
75543;BME280;64129;53.508;10.476;2023-04-01T09:28:57;99594.53;;;6.78;88.97
75543;BME280;64129;53.508;10.476;2023-04-01T09:31:36;99607.53;;;6.51;89.31
75543;BME280;64129;53.508;10.476;2023-04-01T09:37:26;99603.84;;;6.58;89.16
75543;BME280;64129;53.508;10.476;2023-04-01T09:40:18;99611.09;;;7.15;87.91
75543;BME280;64129;53.508;10.476;2023-04-01T09:48:45;99622.44;;;6.86;88.62
75543;BME280;64129;53.508;10.476;2023-04-01T10:02:33;99643.84;;;6.76;88.18
75543;BME280;64129;53.508;10.476;2023-04-01T10:08:24;99653.41;;;6.80;89.23
75543;BME280;64129;53.508;10.476;2023-04-01T10:22:25;99676.97;;;6.87;88.68
75543;BME280;64129;53.508;10.476;2023-04-01T10:37:19;99686.81;;;6.81;88.28
75543;BME280;64129;53.508;10.476;2023-04-01T10:43:06;99703.41;;;6.86;88.59
75543;BME280;64129;53.508;10.476;2023-04-01T10:54:14;99709.53;;;6.86;88.11
75543;BME280;64129;53.508;10.476;2023-04-01T10:57:42;99720.19;;;6.46;88.03
75543;BME280;64129;53.508;10.476;2023-04-01T11:04:01;99722.56;;;6.94;89.00
75543;BME280;64129;53.508;10.476;2023-04-01T11:10:04;99721.13;;;6.81;88.01
75543;BME280;64129;53.508;10.476;2023-04-01T11:16:23;99739.44;;;6.87;88.16
75543;BME280;64129;53.508;10.476;2023-04-01T11:19:15;99738.63;;;7.19;88.18
75543;BME280;64129;53.508;10.476;2023-04-01T11:24:53;99744.56;;;6.95;88.19
75543;BME280;64129;53.508;10.476;2023-04-01T11:28:08;99751.53;;;6.97;85.98
75543;BME280;64129;53.508;10.476;2023-04-01T11:33:36;99758.53;;;6.63;87.09
75543;BME280;64129;53.508;10.476;2023-04-01T11:39:24;99768.91;;;6.69;87.82
75543;BME280;64129;53.508;10.476;2023-04-01T11:45:45;99773.91;;;6.81;87.71
75543;BME280;64129;53.508;10.476;2023-04-01T12:00:18;99804.19;;;6.65;88.23
75543;BME280;64129;53.508;10.476;2023-04-01T12:05:42;99808.81;;;6.92;87.39
75543;BME280;64129;53.508;10.476;2023-04-01T12:08:27;99803.13;;;6.33;86.87
75543;BME280;64129;53.508;10.476;2023-04-01T12:11:29;99814.25;;;6.86;87.53
75543;BME280;64129;53.508;10.476;2023-04-01T12:16:47;99819.28;;;6.58;87.16
75543;BME280;64129;53.508;10.476;2023-04-01T12:25:17;99850.25;;;6.48;86.68
75543;BME280;64129;53.508;10.476;2023-04-01T12:33:58;99852.81;;;6.53;87.01
75543;BME280;64129;53.508;10.476;2023-04-01T12:36:35;99855.41;;;6.54;87.26
75543;BME280;64129;53.508;10.476;2023-04-01T12:39:29;99864.97;;;6.58;86.84
75543;BME280;64129;53.508;10.476;2023-04-01T12:42:21;99863.19;;;6.62;86.24
75543;BME280;64129;53.508;10.476;2023-04-01T12:48:05;99870.97;;;6.67;85.93
75543;BME280;64129;53.508;10.476;2023-04-01T12:56:39;99884.13;;;9.03;88.00
75543;BME280;64129;53.508;10.476;2023-04-01T13:02:35;99886.91;;;8.71;80.87
75543;BME280;64129;53.508;10.476;2023-04-01T13:08:20;99904.16;;;8.53;75.87
75543;BME280;64129;53.508;10.476;2023-04-01T13:11:06;99905.38;;;9.56;73.46
75543;BME280;64129;53.508;10.476;2023-04-01T13:21:32;99924.16;;;6.88;83.93
75543;BME280;64129;53.508;10.476;2023-04-01T13:27:16;99934.44;;;6.61;84.51
75543;BME280;64129;53.508;10.476;2023-04-01T13:38:17;99949.91;;;6.77;85.68
75543;BME280;64129;53.508;10.476;2023-04-01T13:41:04;99952.22;;;6.49;84.99
75543;BME280;64129;53.508;10.476;2023-04-01T13:43:37;99954.41;;;6.29;85.42
75543;BME280;64129;53.508;10.476;2023-04-01T13:46:14;99958.03;;;6.22;86.65
75543;BME280;64129;53.508;10.476;2023-04-01T13:51:33;99970.13;;;6.34;86.40
75543;BME280;64129;53.508;10.476;2023-04-01T13:57:13;99983.84;;;6.05;86.74
75543;BME280;64129;53.508;10.476;2023-04-01T14:02:53;99989.72;;;6.19;87.02
75543;BME280;64129;53.508;10.476;2023-04-01T14:08:36;99996.59;;;6.29;85.99
75543;BME280;64129;53.508;10.476;2023-04-01T14:11:25;100005.38;;;6.30;85.60
75543;BME280;64129;53.508;10.476;2023-04-01T14:31:43;100023.59;;;5.89;86.31
75543;BME280;64129;53.508;10.476;2023-04-01T14:34:21;100037.63;;;5.88;85.99
75543;BME280;64129;53.508;10.476;2023-04-01T14:45:40;100039.69;;;5.71;86.94
75543;BME280;64129;53.508;10.476;2023-04-01T14:51:02;100051.06;;;5.73;86.50
75543;BME280;64129;53.508;10.476;2023-04-01T14:53:33;100060.84;;;5.65;86.28
75543;BME280;64129;53.508;10.476;2023-04-01T14:56:02;100060.69;;;5.76;86.09
75543;BME280;64129;53.508;10.476;2023-04-01T14:58:45;100068.00;;;5.57;86.34
75543;BME280;64129;53.508;10.476;2023-04-01T15:06:53;100089.13;;;5.51;86.51
75543;BME280;64129;53.508;10.476;2023-04-01T15:12:29;100089.44;;;5.29;86.51
75543;BME280;64129;53.508;10.476;2023-04-01T15:15:36;100099.00;;;5.35;86.50
75543;BME280;64129;53.508;10.476;2023-04-01T15:18:15;100102.66;;;5.89;88.43
75543;BME280;64129;53.508;10.476;2023-04-01T15:21:18;100105.59;;;5.68;84.54
75543;BME280;64129;53.508;10.476;2023-04-01T15:23:58;100113.69;;;5.53;85.58
75543;BME280;64129;53.508;10.476;2023-04-01T15:29:17;100124.25;;;5.50;85.16
75543;BME280;64129;53.508;10.476;2023-04-01T15:32:05;100133.03;;;5.49;85.40
75543;BME280;64129;53.508;10.476;2023-04-01T15:34:57;100131.44;;;5.39;85.57
75543;BME280;64129;53.508;10.476;2023-04-01T15:40:27;100143.75;;;5.37;85.36
75543;BME280;64129;53.508;10.476;2023-04-01T15:43:21;100155.31;;;5.25;86.09
75543;BME280;64129;53.508;10.476;2023-04-01T15:48:41;100159.72;;;5.23;86.46
75543;BME280;64129;53.508;10.476;2023-04-01T15:51:26;100162.41;;;5.15;86.33
75543;BME280;64129;53.508;10.476;2023-04-01T16:05:30;100186.13;;;5.12;86.97
75543;BME280;64129;53.508;10.476;2023-04-01T16:14:01;100205.38;;;5.17;86.72
75543;BME280;64129;53.508;10.476;2023-04-01T16:16:41;100200.19;;;5.10;86.33
75543;BME280;64129;53.508;10.476;2023-04-01T16:19:33;100200.22;;;5.08;86.35
75543;BME280;64129;53.508;10.476;2023-04-01T16:22:32;100215.16;;;5.05;86.26
75543;BME280;64129;53.508;10.476;2023-04-01T16:31:26;100224.16;;;4.79;86.19
75543;BME280;64129;53.508;10.476;2023-04-01T16:37:03;100238.94;;;4.94;86.78
75543;BME280;64129;53.508;10.476;2023-04-01T16:43:05;100247.88;;;4.75;86.42
75543;BME280;64129;53.508;10.476;2023-04-01T16:45:38;100260.13;;;4.76;85.71
75543;BME280;64129;53.508;10.476;2023-04-01T16:48:13;100260.34;;;4.51;86.29
75543;BME280;64129;53.508;10.476;2023-04-01T16:55:52;100282.91;;;4.77;86.30
75543;BME280;64129;53.508;10.476;2023-04-01T16:58:35;100282.94;;;4.74;86.20
75543;BME280;64129;53.508;10.476;2023-04-01T17:01:04;100289.06;;;4.77;86.80
75543;BME280;64129;53.508;10.476;2023-04-01T17:03:37;100296.16;;;4.67;86.15
75543;BME280;64129;53.508;10.476;2023-04-01T17:12:13;100306.78;;;4.48;86.76
75543;BME280;64129;53.508;10.476;2023-04-01T17:25:17;100343.06;;;5.27;82.51
75543;BME280;64129;53.508;10.476;2023-04-01T17:30:59;100363.63;;;4.72;82.70
75543;BME280;64129;53.508;10.476;2023-04-01T17:33:47;100360.91;;;4.82;83.59
75543;BME280;64129;53.508;10.476;2023-04-01T17:39:13;100386.50;;;4.57;83.74
75543;BME280;64129;53.508;10.476;2023-04-01T17:41:55;100382.22;;;4.36;84.01
75543;BME280;64129;53.508;10.476;2023-04-01T17:44:49;100384.78;;;4.55;84.21
75543;BME280;64129;53.508;10.476;2023-04-01T17:53:42;100402.38;;;4.36;83.52
75543;BME280;64129;53.508;10.476;2023-04-01T17:59:35;100419.91;;;4.31;83.84
75543;BME280;64129;53.508;10.476;2023-04-01T18:02:16;100420.84;;;4.19;83.47
75543;BME280;64129;53.508;10.476;2023-04-01T18:10:20;100445.34;;;4.14;83.65
75543;BME280;64129;53.508;10.476;2023-04-01T18:23:52;100477.75;;;4.16;82.98
75543;BME280;64129;53.508;10.476;2023-04-01T18:26:31;100480.38;;;4.26;83.10
75543;BME280;64129;53.508;10.476;2023-04-01T18:29:27;100488.28;;;4.16;83.55
75543;BME280;64129;53.508;10.476;2023-04-01T18:32:11;100493.53;;;4.06;82.55
75543;BME280;64129;53.508;10.476;2023-04-01T18:37:39;100509.34;;;3.88;82.33
75543;BME280;64129;53.508;10.476;2023-04-01T18:45:32;100533.81;;;3.81;81.84
75543;BME280;64129;53.508;10.476;2023-04-01T18:48:13;100535.56;;;3.79;81.41
75543;BME280;64129;53.508;10.476;2023-04-01T18:50:47;100546.13;;;3.88;81.33
75543;BME280;64129;53.508;10.476;2023-04-01T18:56:34;100556.63;;;3.94;82.25
75543;BME280;64129;53.508;10.476;2023-04-01T18:59:08;100560.09;;;3.80;80.93
75543;BME280;64129;53.508;10.476;2023-04-01T19:01:39;100566.25;;;3.91;80.73
75543;BME280;64129;53.508;10.476;2023-04-01T19:04:36;100567.13;;;3.88;81.80
75543;BME280;64129;53.508;10.476;2023-04-01T19:07:39;100572.38;;;3.94;82.17
75543;BME280;64129;53.508;10.476;2023-04-01T19:10:31;100582.88;;;3.85;81.78
75543;BME280;64129;53.508;10.476;2023-04-01T19:16:33;100593.41;;;3.96;80.98
75543;BME280;64129;53.508;10.476;2023-04-01T19:21:39;100598.59;;;3.70;80.54
75543;BME280;64129;53.508;10.476;2023-04-01T19:26:59;100609.09;;;3.61;78.91
75543;BME280;64129;53.508;10.476;2023-04-01T19:29:45;100616.09;;;3.65;78.17
75543;BME280;64129;53.508;10.476;2023-04-01T19:32:42;100622.16;;;3.42;77.56
75543;BME280;64129;53.508;10.476;2023-04-01T19:35:42;100637.09;;;3.50;78.06
75543;BME280;64129;53.508;10.476;2023-04-01T19:38:24;100630.91;;;3.46;77.63
75543;BME280;64129;53.508;10.476;2023-04-01T19:40:55;100638.84;;;3.51;78.34
75543;BME280;64129;53.508;10.476;2023-04-01T19:56:22;100666.75;;;3.32;78.18
75543;BME280;64129;53.508;10.476;2023-04-01T20:01:59;100679.00;;;3.31;77.86
75543;BME280;64129;53.508;10.476;2023-04-01T20:04:48;100681.59;;;3.24;77.39
75543;BME280;64129;53.508;10.476;2023-04-01T20:07:37;100679.88;;;3.38;78.25
75543;BME280;64129;53.508;10.476;2023-04-01T20:10:17;100693.81;;;3.19;77.11
75543;BME280;64129;53.508;10.476;2023-04-01T20:12:58;100696.47;;;3.29;78.51
75543;BME280;64129;53.508;10.476;2023-04-01T20:15:36;100704.28;;;3.17;77.57
75543;BME280;64129;53.508;10.476;2023-04-01T20:18:13;100706.78;;;2.99;76.63
75543;BME280;64129;53.508;10.476;2023-04-01T20:21:02;100709.44;;;3.06;77.66
75543;BME280;64129;53.508;10.476;2023-04-01T20:23:41;100726.06;;;3.07;76.55
75543;BME280;64129;53.508;10.476;2023-04-01T20:26:11;100723.47;;;3.10;77.29
75543;BME280;64129;53.508;10.476;2023-04-01T20:28:42;100738.25;;;2.96;77.19
75543;BME280;64129;53.508;10.476;2023-04-01T20:34:09;100752.16;;;2.86;77.15
75543;BME280;64129;53.508;10.476;2023-04-01T20:42:55;100767.03;;;2.85;77.12
75543;BME280;64129;53.508;10.476;2023-04-01T20:48:17;100778.09;;;2.52;76.07
75543;BME280;64129;53.508;10.476;2023-04-01T20:50:59;100771.22;;;2.66;76.54
75543;BME280;64129;53.508;10.476;2023-04-01T20:53:50;100787.75;;;2.56;76.11
75543;BME280;64129;53.508;10.476;2023-04-01T20:59:32;100791.03;;;2.37;75.54
75543;BME280;64129;53.508;10.476;2023-04-01T21:11:39;100816.28;;;2.29;77.32
75543;BME280;64129;53.508;10.476;2023-04-01T21:17:08;100817.16;;;2.29;77.93